Time;durP1;ratioP1;P1;durP2;ratioP2;P2;SDS_P1;SDS_P2;PMS_P1;PMS_P2;Temp;Humidity;BMP_temperature;BMP_pressure;BME280_temperature;BME280_humidity;BME280_pressure;Samples;Min_cycle;Max_cycle;Signal;HPM_P1;HPM_P2
2021/04/15 00:02:15;;;;;;;10.63;3.27;;;;;;;;;;5081778;28;20090;-68
2021/04/15 00:04:40;;;;;;;18.17;3.23;;;;;;;;;;5079828;28;20075;-68
2021/04/15 00:07:06;;;;;;;14.07;3.20;;;;;;;;;;5082792;28;20055;-68
2021/04/15 00:09:31;;;;;;;11.53;2.60;;;;;;;;;;5079798;28;20096;-68
2021/04/15 00:11:56;;;;;;;9.43;3.33;;;;;;;;;;5082673;28;20043;-68
2021/04/15 00:14:23;;;;;;;10.30;2.70;;;;;;;;;;5080629;28;20036;-68
2021/04/15 00:16:48;;;;;;;11.90;3.03;;;;;;;;;;5078641;28;20016;-68
2021/04/15 00:19:15;;;;;;;15.13;3.47;;;;;;;;;;5084467;28;20293;-68
2021/04/15 00:21:41;;;;;;;13.57;3.13;;;;;;;;;;5083735;28;20024;-68
2021/04/15 00:24:06;;;;;;;12.13;3.37;;;;;;;;;;5081879;28;20273;-68
2021/04/15 00:26:32;;;;;;;15.00;3.30;;;;;;;;;;5081026;28;20032;-68
2021/04/15 00:28:58;;;;;;;11.77;4.03;;;;;;;;;;5089593;28;20032;-68
2021/04/15 00:31:24;;;;;;;17.50;3.80;;;;;;;;;;5080976;28;20016;-68
2021/04/15 00:33:50;;;;;;;11.80;3.10;;;;;;;;;;5082067;28;20791;-68
2021/04/15 00:36:15;;;;;;;11.40;3.60;;;;;;;;;;5085322;28;20322;-68
2021/04/15 00:38:41;;;;;;;13.37;3.73;;;;;;;;;;5080312;28;20020;-68
2021/04/15 00:41:07;;;;;;;17.47;4.03;;;;;;;;;;5080264;28;20036;-68
2021/04/15 00:43:35;;;;;;;12.33;3.73;;;;;;;;;;5078659;28;20016;-68
2021/04/15 00:46:20;;;;;;;16.77;4.13;;;;;;;;;;5080654;28;20682;-68
2021/04/15 00:48:46;;;;;;;12.97;3.57;;;;;;;;;;5082194;28;20273;-68
2021/04/15 00:51:19;;;;;;;21.43;3.70;;;;;;;;;;5079845;28;21939;-68
2021/04/15 00:53:53;;;;;;;18.63;3.83;;;;;;;;;;5089333;28;20028;-68
2021/04/15 00:56:19;;;;;;;10.97;3.87;;;;;;;;;;5078696;28;20343;-68
2021/04/15 00:58:44;;;;;;;16.00;3.43;;;;;;;;;;5080186;28;20269;-68
2021/04/15 01:01:10;;;;;;;12.57;3.07;;;;;;;;;;5090041;28;20418;-68
2021/04/15 01:03:36;;;;;;;13.00;4.43;;;;;;;;;;5090551;28;20024;-68
2021/04/15 01:06:03;;;;;;;15.20;3.97;;;;;;;;;;5083309;28;20052;-68
2021/04/15 01:08:28;;;;;;;13.17;3.87;;;;;;;;;;5094650;28;20285;-68
2021/04/15 01:11:18;;;;;;;14.77;3.47;;;;;;;;;;5088996;28;20813;-68
2021/04/15 01:16:15;;;;;;;10.90;3.97;;;;;;;;;;5060741;28;20321;-79
2021/04/15 01:18:47;;;;;;;13.23;3.60;;;;;;;;;;5049400;28;20340;-79
2021/04/15 01:21:27;;;;;;;9.50;3.70;;;;;;;;;;5052312;28;20313;-80
2021/04/15 01:24:04;;;;;;;11.37;4.30;;;;;;;;;;5051957;28;20389;-80
2021/04/15 01:26:40;;;;;;;11.07;3.90;;;;;;;;;;5055475;28;20363;-80
2021/04/15 01:29:17;;;;;;;12.17;3.83;;;;;;;;;;5052109;28;20276;-80
2021/04/15 01:31:51;;;;;;;14.90;4.27;;;;;;;;;;5055100;28;20279;-80
2021/04/15 01:34:16;;;;;;;15.47;4.33;;;;;;;;;;5053204;28;20271;-80
2021/04/15 01:36:44;;;;;;;14.43;4.27;;;;;;;;;;5055831;28;20325;-80
2021/04/15 01:39:09;;;;;;;11.57;4.20;;;;;;;;;;5054807;28;20056;-80
2021/04/15 01:41:38;;;;;;;14.37;4.30;;;;;;;;;;5055262;28;20627;-79
2021/04/15 01:44:06;;;;;;;14.37;3.87;;;;;;;;;;5055410;28;20529;-79
2021/04/15 01:46:34;;;;;;;16.27;4.63;;;;;;;;;;5055154;28;20275;-79
2021/04/15 01:49:00;;;;;;;13.90;4.77;;;;;;;;;;5054359;28;20384;-80
2021/04/15 01:51:28;;;;;;;22.63;4.97;;;;;;;;;;5054119;28;20759;-80
2021/04/15 01:54:04;;;;;;;16.87;4.70;;;;;;;;;;5054073;28;20017;-80
2021/04/15 01:56:38;;;;;;;13.47;4.33;;;;;;;;;;5055061;28;20739;-80
2021/04/15 01:59:13;;;;;;;25.80;5.17;;;;;;;;;;5053749;28;20313;-80
2021/04/15 02:01:42;;;;;;;18.33;5.67;;;;;;;;;;5053844;28;20256;-80
2021/04/15 02:04:15;;;;;;;31.83;7.17;;;;;;;;;;5043097;28;20282;-80
2021/04/15 02:06:44;;;;;;;15.32;4.55;;;;;;;;;;5041499;28;20271;-80
2021/04/15 02:09:10;;;;;;;17.27;4.63;;;;;;;;;;5035906;28;20483;-80
2021/04/15 02:11:40;;;;;;;16.63;5.00;;;;;;;;;;5048841;28;20294;-79
2021/04/15 02:14:07;;;;;;;15.57;5.27;;;;;;;;;;5046839;28;20351;-79
2021/04/15 02:16:33;;;;;;;11.57;4.60;;;;;;;;;;5045609;28;20287;-80
2021/04/15 02:19:01;;;;;;;21.87;4.57;;;;;;;;;;5047018;28;20275;-80
2021/04/15 02:21:30;;;;;;;22.00;4.67;;;;;;;;;;5040783;28;20355;-80
2021/04/15 02:23:59;;;;;;;15.07;4.60;;;;;;;;;;5043725;28;20280;-80
2021/04/15 02:26:31;;;;;;;20.23;4.90;;;;;;;;;;5038713;28;20272;-80
2021/04/15 02:29:01;;;;;;;20.38;5.10;;;;;;;;;;5052000;28;20294;-79
2021/04/15 02:31:30;;;;;;;14.80;5.10;;;;;;;;;;5039893;28;20049;-80
2021/04/15 02:34:02;;;;;;;15.93;5.30;;;;;;;;;;5052526;28;20439;-80
2021/04/15 02:36:34;;;;;;;18.73;5.73;;;;;;;;;;5044927;28;20327;-80
2021/04/15 02:39:06;;;;;;;18.00;5.23;;;;;;;;;;5056349;28;20289;-79
2021/04/15 02:41:32;;;;;;;;;;;;;;;;;;5055097;28;20278;-79
2021/04/15 02:44:05;;;;;;;23.37;5.90;;;;;;;;;;5049120;28;19917;-79
2021/04/15 02:47:04;;;;;;;23.53;6.93;;;;;;;;;;5041818;28;20347;-79
2021/04/15 02:49:30;;;;;;;17.10;6.77;;;;;;;;;;5047241;28;20333;-79
2021/04/15 02:51:58;;;;;;;18.13;5.80;;;;;;;;;;5054644;28;20315;-79
2021/04/15 02:54:27;;;;;;;17.80;6.27;;;;;;;;;;5052436;28;20341;-78
2021/04/15 02:57:05;;;;;;;27.37;7.70;;;;;;;;;;5053291;28;20262;-78
2021/04/15 02:59:34;;;;;;;20.97;6.33;;;;;;;;;;5046443;28;20279;-78
2021/04/15 03:02:11;;;;;;;27.40;7.10;;;;;;;;;;5047580;28;20295;-78
2021/04/15 03:04:38;;;;;;;18.60;6.20;;;;;;;;;;5055365;28;20811;-79
2021/04/15 03:07:04;;;;;;;26.67;6.80;;;;;;;;;;5045731;28;20333;-78
2021/04/15 03:09:36;;;;;;;27.50;7.63;;;;;;;;;;5049188;28;20349;-78
2021/04/15 03:12:06;;;;;;;19.55;6.57;;;;;;;;;;5054487;28;20305;-78
2021/04/15 03:14:33;;;;;;;16.60;6.53;;;;;;;;;;5048240;28;20053;-78
2021/04/15 03:17:01;;;;;;;18.43;7.20;;;;;;;;;;5057231;28;20270;-79
2021/04/15 03:19:30;;;;;;;19.37;6.20;;;;;;;;;;5052799;28;20280;-79
2021/04/15 03:22:02;;;;;;;19.33;7.10;;;;;;;;;;5048749;28;20775;-78
2021/04/15 03:24:40;;;;;;;23.80;6.80;;;;;;;;;;5055245;28;20319;-78
2021/04/15 03:27:24;;;;;;;18.13;6.40;;;;;;;;;;5037631;28;20284;-78
2021/04/15 03:29:49;;;;;;;18.00;6.33;;;;;;;;;;5045783;28;20346;-78
2021/04/15 03:32:33;;;;;;;20.10;7.00;;;;;;;;;;5041968;28;20363;-78
2021/04/15 03:35:13;;;;;;;23.77;7.23;;;;;;;;;;5051313;28;20095;-78
2021/04/15 03:37:49;;;;;;;18.40;6.90;;;;;;;;;;5039943;28;20279;-79
2021/04/15 03:40:16;;;;;;;29.67;7.50;;;;;;;;;;5045827;28;20723;-79
2021/04/15 03:42:44;;;;;;;22.20;8.87;;;;;;;;;;5064613;28;20343;-79
2021/04/15 03:45:21;;;;;;;25.17;7.53;;;;;;;;;;5047218;28;20287;-79
2021/04/15 03:47:50;;;;;;;29.53;8.57;;;;;;;;;;5039500;28;20284;-79
2021/04/15 03:50:17;;;;;;;23.17;7.97;;;;;;;;;;5048717;28;20323;-79
2021/04/15 03:53:03;;;;;;;20.07;7.00;;;;;;;;;;5056465;28;20282;-79
2021/04/15 03:55:30;;;;;;;28.87;7.30;;;;;;;;;;5036462;28;20294;-79
2021/04/15 03:57:58;;;;;;;20.43;7.10;;;;;;;;;;5063686;28;20268;-79
2021/04/15 04:00:29;;;;;;;19.40;7.27;;;;;;;;;;5044608;28;20666;-78
2021/04/15 04:02:57;;;;;;;21.58;7.95;;;;;;;;;;5052763;28;20260;-78
2021/04/15 04:05:24;;;;;;;15.77;6.40;;;;;;;;;;5053075;28;20380;-79
2021/04/15 04:07:55;;;;;;;19.33;7.40;;;;;;;;;;5046385;28;20267;-79
2021/04/15 04:10:24;;;;;;;15.13;6.80;;;;;;;;;;5046524;28;20279;-79
2021/04/15 04:13:01;;;;;;;27.20;7.10;;;;;;;;;;5047321;28;20333;-78
2021/04/15 04:15:30;;;;;;;29.00;8.37;;;;;;;;;;5049852;28;20312;-79
2021/04/15 04:18:02;;;;;;;21.60;7.77;;;;;;;;;;5048146;28;20357;-78
2021/04/15 04:20:29;;;;;;;25.93;8.43;;;;;;;;;;5052239;28;20375;-79
2021/04/15 04:23:13;;;;;;;26.53;7.93;;;;;;;;;;5044420;28;20279;-79
2021/04/15 04:25:48;;;;;;;18.00;7.63;;;;;;;;;;5038842;28;20271;-79
2021/04/15 04:28:19;;;;;;;24.63;7.83;;;;;;;;;;5048918;28;20698;-79
2021/04/15 04:31:14;;;;;;;22.47;7.60;;;;;;;;;;5041298;28;20632;-78
2021/04/15 04:33:50;;;;;;;24.67;6.73;;;;;;;;;;5033719;28;20291;-78
2021/04/15 04:36:17;;;;;;;20.17;6.70;;;;;;;;;;5041386;28;20663;-78
2021/04/15 04:38:42;;;;;;;21.13;7.37;;;;;;;;;;5036849;28;20284;-78
2021/04/15 04:41:15;;;;;;;18.23;6.60;;;;;;;;;;5050799;28;20288;-78
2021/04/15 04:43:40;;;;;;;18.53;7.27;;;;;;;;;;5042047;28;20465;-78
2021/04/15 04:46:11;;;;;;;24.73;8.10;;;;;;;;;;5047589;28;20278;-78
2021/04/15 04:48:51;;;;;;;23.77;8.40;;;;;;;;;;5040088;28;20021;-78
2021/04/15 04:51:18;;;;;;;26.00;7.63;;;;;;;;;;5047405;28;20332;-78
2021/04/15 04:53:44;;;;;;;19.13;7.23;;;;;;;;;;5040192;28;20286;-78
2021/04/15 04:56:20;;;;;;;14.03;6.53;;;;;;;;;;5043453;28;20260;-78
2021/04/15 04:59:01;;;;;;;18.90;6.77;;;;;;;;;;5050130;28;20417;-78
2021/04/15 05:01:27;;;;;;;19.93;6.87;;;;;;;;;;5049030;28;20280;-79
2021/04/15 05:04:02;;;;;;;26.23;8.60;;;;;;;;;;5048546;28;20641;-78
2021/04/15 05:06:32;;;;;;;29.27;11.27;;;;;;;;;;5046149;28;20030;-78
2021/04/15 05:09:14;;;;;;;27.60;11.20;;;;;;;;;;5049116;28;20267;-78
2021/04/15 05:11:44;;;;;;;25.73;10.43;;;;;;;;;;5048818;28;20272;-79
2021/04/15 05:14:10;;;;;;;26.60;10.10;;;;;;;;;;5046377;28;20084;-78
2021/04/15 05:16:46;;;;;;;25.17;10.30;;;;;;;;;;5042169;28;20295;-78
2021/04/15 05:19:12;;;;;;;20.00;9.87;;;;;;;;;;5042268;28;20291;-78
2021/04/15 05:21:38;;;;;;;20.77;8.63;;;;;;;;;;5043806;28;20624;-79
2021/04/15 05:24:03;;;;;;;20.73;9.60;;;;;;;;;;5048542;28;20396;-79
2021/04/15 05:26:32;;;;;;;20.53;9.60;;;;;;;;;;5045567;28;20264;-79
2021/04/15 05:28:59;;;;;;;23.07;10.20;;;;;;;;;;5042596;28;20021;-78
2021/04/15 05:31:27;;;;;;;24.00;8.43;;;;;;;;;;5038448;28;20275;-78
2021/04/15 05:33:53;;;;;;;27.30;10.43;;;;;;;;;;5045606;28;20265;-78
2021/04/15 05:36:31;;;;;;;21.40;9.40;;;;;;;;;;5040472;28;20283;-78
2021/04/15 05:38:58;;;;;;;18.93;8.77;;;;;;;;;;5041543;28;20083;-79
2021/04/15 05:41:29;;;;;;;18.87;8.47;;;;;;;;;;5044913;28;20272;-79
2021/04/15 05:44:02;;;;;;;18.03;8.63;;;;;;;;;;5041552;28;20650;-78
2021/04/15 05:46:39;;;;;;;16.80;7.30;;;;;;;;;;5045324;28;20268;-78
2021/04/15 05:49:05;;;;;;;24.23;7.87;;;;;;;;;;5037060;28;20282;-78
2021/04/15 05:51:50;;;;;;;14.80;6.30;;;;;;;;;;5041819;28;20280;-78
2021/04/15 05:54:16;;;;;;;14.20;6.30;;;;;;;;;;5037298;28;20040;-79
2021/04/15 05:56:53;;;;;;;10.97;5.53;;;;;;;;;;5045692;28;20279;-79
2021/04/15 05:59:22;;;;;;;10.33;4.23;;;;;;;;;;5041006;28;20295;-78
2021/04/15 06:02:08;;;;;;;9.70;4.47;;;;;;;;;;5040643;28;20276;-78
2021/04/15 06:04:36;;;;;;;9.43;3.83;;;;;;;;;;5044295;28;20314;-78
2021/04/15 06:07:03;;;;;;;9.87;3.73;;;;;;;;;;5042187;28;20271;-78
2021/04/15 06:09:29;;;;;;;7.23;3.57;;;;;;;;;;5041662;28;20727;-77
2021/04/15 06:12:08;;;;;;;7.20;3.37;;;;;;;;;;5040337;28;20119;-76
2021/04/15 06:14:51;;;;;;;12.03;4.10;;;;;;;;;;5042807;28;20072;-76
2021/04/15 06:17:31;;;;;;;9.70;3.33;;;;;;;;;;5021320;28;20030;-76
2021/04/15 06:20:09;;;;;;;19.47;7.47;;;;;;;;;;5020889;28;20452;-76
2021/04/15 06:22:37;;;;;;;7.27;3.30;;;;;;;;;;5027257;28;20025;-75
2021/04/15 06:25:23;;;;;;;10.13;3.77;;;;;;;;;;5019068;28;20042;-76
2021/04/15 06:27:48;;;;;;;10.20;4.70;;;;;;;;;;5010757;28;20069;-75
2021/04/15 06:30:17;;;;;;;8.00;3.67;;;;;;;;;;5019389;28;20052;-75
2021/04/15 06:32:53;;;;;;;9.23;3.90;;;;;;;;;;5020005;28;20044;-76
2021/04/15 06:35:21;;;;;;;9.13;3.77;;;;;;;;;;5027040;28;20393;-75
2021/04/15 06:37:48;;;;;;;10.80;3.47;;;;;;;;;;5021852;28;20256;-73
2021/04/15 06:40:32;;;;;;;9.60;3.93;;;;;;;;;;5011042;28;20029;-75
2021/04/15 06:43:16;;;;;;;7.57;3.60;;;;;;;;;;5027747;28;20709;-75
2021/04/15 06:45:50;;;;;;;10.10;4.00;;;;;;;;;;5018298;28;20044;-75
2021/04/15 06:48:18;;;;;;;7.70;3.07;;;;;;;;;;5013766;28;20061;-74
2021/04/15 06:50:55;;;;;;;10.27;3.57;;;;;;;;;;5016801;28;20385;-75
2021/04/15 06:53:39;;;;;;;9.77;3.67;;;;;;;;;;5021642;28;20461;-75
2021/04/15 06:56:23;;;;;;;9.53;3.50;;;;;;;;;;5025813;28;20042;-75
2021/04/15 06:58:49;;;;;;;8.97;3.70;;;;;;;;;;5025474;28;20523;-75
2021/04/15 07:01:27;;;;;;;10.03;4.30;;;;;;;;;;5022140;28;20034;-75
2021/04/15 07:04:15;;;;;;;10.13;3.90;;;;;;;;;;5022175;28;20053;-75
2021/04/15 07:06:48;;;;;;;11.23;3.60;;;;;;;;;;5018590;28;20025;-75
2021/04/15 07:09:16;;;;;;;8.13;3.20;;;;;;;;;;5024949;28;20029;-76
2021/04/15 07:12:11;;;;;;;6.63;2.93;;;;;;;;;;5030452;28;20033;-75
2021/04/15 07:14:52;;;;;;;7.63;3.23;;;;;;;;;;5016592;28;20044;-75
2021/04/15 07:17:20;;;;;;;6.73;3.10;;;;;;;;;;5038918;28;20029;-76
2021/04/15 07:19:57;;;;;;;8.53;2.93;;;;;;;;;;5037988;28;20037;-76
2021/04/15 07:22:41;;;;;;;8.80;2.70;;;;;;;;;;5033314;28;20025;-76
2021/04/15 07:25:07;;;;;;;8.43;2.97;;;;;;;;;;5047748;28;20047;-76
2021/04/15 07:28:11;;;;;;;8.60;3.10;;;;;;;;;;5043954;28;20478;-77
2021/04/15 07:30:43;;;;;;;5.63;2.63;;;;;;;;;;4940123;28;20097;-77
2021/04/15 07:33:27;;;;;;;6.03;3.20;;;;;;;;;;4963819;28;20464;-77
2021/04/15 07:36:06;;;;;;;8.00;3.13;;;;;;;;;;5014053;28;20090;-76
2021/04/15 07:38:54;;;;;;;7.03;3.23;;;;;;;;;;5044685;28;20078;-77
2021/04/15 07:41:19;;;;;;;6.97;3.13;;;;;;;;;;5029734;28;20102;-78
2021/04/15 07:43:51;;;;;;;7.20;3.23;;;;;;;;;;5037733;28;20032;-78
2021/04/15 07:46:38;;;;;;;14.07;2.42;;;;;;;;;;5039805;28;20029;-78
2021/04/15 07:49:16;;;;;;;9.47;3.10;;;;;;;;;;5041481;28;20493;-78
2021/04/15 07:52:00;;;;;;;6.03;2.80;;;;;;;;;;5037011;28;20155;-78
2021/04/15 07:54:25;;;;;;;6.37;2.90;;;;;;;;;;5043688;28;20484;-78
2021/04/15 07:57:09;;;;;;;8.87;3.03;;;;;;;;;;5040355;28;20029;-78
2021/04/15 07:59:53;;;;;;;8.90;3.30;;;;;;;;;;5039066;28;20029;-76
2021/04/15 08:02:18;;;;;;;5.77;2.53;;;;;;;;;;5041883;28;20074;-77
2021/04/15 08:04:59;;;;;;;7.43;2.43;;;;;;;;;;5040059;28;20024;-77
2021/04/15 08:07:40;;;;;;;7.13;2.67;;;;;;;;;;5044124;28;20017;-77
2021/04/15 08:10:14;;;;;;;7.93;2.80;;;;;;;;;;5039422;28;20037;-77
2021/04/15 08:12:46;;;;;;;6.37;2.17;;;;;;;;;;5040874;28;20025;-78
2021/04/15 08:15:30;;;;;;;6.90;2.50;;;;;;;;;;5046679;28;20547;-77
2021/04/15 08:18:12;;;;;;;5.40;2.00;;;;;;;;;;5039657;28;20037;-74
2021/04/15 08:20:48;;;;;;;4.82;1.88;;;;;;;;;;5036421;28;20033;-77
2021/04/15 08:23:20;;;;;;;3.87;1.70;;;;;;;;;;5045773;28;20029;-77
2021/04/15 08:26:03;;;;;;;4.70;1.67;;;;;;;;;;5045859;28;20038;-78
2021/04/15 08:28:47;;;;;;;4.50;1.57;;;;;;;;;;5034807;28;20103;-78
2021/04/15 08:31:26;;;;;;;6.85;1.75;;;;;;;;;;5044770;28;20056;-78
2021/04/15 08:34:06;;;;;;;4.90;1.90;;;;;;;;;;5033143;28;20026;-77
2021/04/15 08:36:32;;;;;;;6.50;1.40;;;;;;;;;;5039346;28;20423;-77
2021/04/15 08:39:02;;;;;;;2.45;1.05;;;;;;;;;;5052102;28;20029;-77
2021/04/15 08:41:27;;;;;;;2.10;1.00;;;;;;;;;;5040297;28;20018;-77
2021/04/15 08:44:08;;;;;;;4.28;1.00;;;;;;;;;;5034342;28;20032;-77
2021/04/15 08:46:33;;;;;;;4.80;1.20;;;;;;;;;;5035477;28;20030;-77
2021/04/15 08:49:17;;;;;;;3.80;1.05;;;;;;;;;;5034209;28;20056;-77
2021/04/15 08:52:01;;;;;;;2.63;1.00;;;;;;;;;;5035012;28;20405;-77
2021/04/15 08:54:35;;;;;;;3.45;1.00;;;;;;;;;;5035161;28;20025;-77
2021/04/15 08:57:19;;;;;;;3.17;1.08;;;;;;;;;;5041901;28;20017;-77
2021/04/15 08:59:53;;;;;;;2.78;1.00;;;;;;;;;;5056216;28;20044;-77
2021/04/15 09:02:37;;;;;;;5.47;1.38;;;;;;;;;;5046960;28;20017;-77
2021/04/15 09:05:13;;;;;;;5.50;1.25;;;;;;;;;;5053895;28;20021;-77
2021/04/15 09:07:38;;;;;;;4.87;1.30;;;;;;;;;;5039727;28;20021;-78
2021/04/15 09:10:12;;;;;;;4.23;1.67;;;;;;;;;;5039513;28;20044;-78
2021/04/15 09:12:40;;;;;;;4.33;1.23;;;;;;;;;;5038820;28;20030;-77
2021/04/15 09:15:23;;;;;;;1.47;0.90;;;;;;;;;;5039283;28;20574;-77
2021/04/15 09:17:56;;;;;;;5.57;1.23;;;;;;;;;;5053392;28;20033;-78
2021/04/15 09:20:36;;;;;;;2.13;0.90;;;;;;;;;;5052769;28;20510;-77
2021/04/15 09:23:02;;;;;;;3.45;1.27;;;;;;;;;;5058809;28;20104;-78
2021/04/15 09:25:45;;;;;;;3.65;1.40;;;;;;;;;;5054651;28;20053;-77
2021/04/15 09:28:13;;;;;;;4.82;1.35;;;;;;;;;;5034304;28;20029;-77
2021/04/15 09:30:52;;;;;;;3.23;1.23;;;;;;;;;;5054165;28;20033;-78
2021/04/15 09:33:18;;;;;;;5.00;1.60;;;;;;;;;;5065572;28;20039;-78
2021/04/15 09:36:02;;;;;;;4.33;1.30;;;;;;;;;;5036442;28;20108;-79
2021/04/15 09:38:33;;;;;;;3.93;1.10;;;;;;;;;;5052295;28;20029;-79
2021/04/15 09:41:02;;;;;;;2.67;1.20;;;;;;;;;;5042186;28;20041;-78
2021/04/15 09:43:42;;;;;;;5.32;1.40;;;;;;;;;;5036567;28;20542;-78
2021/04/15 09:46:26;;;;;;;3.28;1.20;;;;;;;;;;5047847;28;20032;-78
2021/04/15 09:48:59;;;;;;;3.63;1.38;;;;;;;;;;5051716;28;20172;-78
2021/04/15 09:51:39;;;;;;;2.60;1.00;;;;;;;;;;5050142;28;20037;-79
2021/04/15 09:54:23;;;;;;;5.33;1.30;;;;;;;;;;5053740;28;20373;-77
2021/04/15 09:57:00;;;;;;;2.70;1.20;;;;;;;;;;5048785;28;20032;-78
2021/04/15 09:59:45;;;;;;;3.10;1.20;;;;;;;;;;5054459;28;20025;-78
2021/04/15 10:02:19;;;;;;;5.80;1.67;;;;;;;;;;5041074;28;20022;-78
2021/04/15 10:05:03;;;;;;;3.07;1.10;;;;;;;;;;5041039;28;20044;-78
2021/04/15 10:07:32;;;;;;;5.23;1.50;;;;;;;;;;5050178;28;20013;-79
2021/04/15 10:10:09;;;;;;;2.80;1.20;;;;;;;;;;5052251;28;20481;-77
2021/04/15 10:12:35;;;;;;;4.47;1.37;;;;;;;;;;5033501;28;20029;-77
2021/04/15 10:15:20;;;;;;;2.67;1.10;;;;;;;;;;5038623;28;20044;-77
2021/04/15 10:17:51;;;;;;;2.70;1.13;;;;;;;;;;5044722;28;20026;-78
2021/04/15 10:20:35;;;;;;;2.93;1.03;;;;;;;;;;5036930;28;20469;-78
2021/04/15 10:23:13;;;;;;;3.43;1.50;;;;;;;;;;5038162;28;20256;-77
2021/04/15 10:25:58;;;;;;;2.90;1.40;;;;;;;;;;5035718;28;20021;-78
2021/04/15 10:28:26;;;;;;;3.67;1.50;;;;;;;;;;5047709;28;20056;-77
2021/04/15 10:30:51;;;;;;;4.13;1.40;;;;;;;;;;5042674;28;20026;-77
2021/04/15 10:33:23;;;;;;;3.23;1.33;;;;;;;;;;5035532;28;20025;-78
2021/04/15 10:36:07;;;;;;;3.58;1.48;;;;;;;;;;5043238;28;20026;-78
2021/04/15 10:38:51;;;;;;;3.97;1.30;;;;;;;;;;5038316;28;20033;-78
2021/04/15 10:41:35;;;;;;;4.50;1.20;;;;;;;;;;5036099;28;20087;-77
2021/04/15 10:44:03;;;;;;;3.43;1.37;;;;;;;;;;5033388;28;20687;-77
2021/04/15 10:46:31;;;;;;;3.03;1.20;;;;;;;;;;5045194;28;20026;-77
2021/04/15 10:49:02;;;;;;;4.43;1.10;;;;;;;;;;5031771;28;20139;-77
2021/04/15 10:51:32;;;;;;;4.68;1.00;;;;;;;;;;5044646;28;20025;-77
2021/04/15 10:54:02;;;;;;;3.73;1.20;;;;;;;;;;5031795;28;20025;-77
2021/04/15 10:56:27;;;;;;;2.37;1.10;;;;;;;;;;5048284;28;20025;-77
2021/04/15 10:58:54;;;;;;;3.50;1.10;;;;;;;;;;5057187;28;20025;-77
2021/04/15 11:01:30;;;;;;;3.63;1.23;;;;;;;;;;5045295;28;20029;-77
2021/04/15 11:03:57;;;;;;;4.73;1.20;;;;;;;;;;5048299;28;20108;-77
2021/04/15 11:06:29;;;;;;;4.07;1.33;;;;;;;;;;5048247;28;20013;-77
2021/04/15 11:08:54;;;;;;;3.92;1.50;;;;;;;;;;5035524;28;20013;-77
2021/04/15 11:11:27;;;;;;;5.17;1.30;;;;;;;;;;5042889;28;20422;-77
2021/04/15 11:14:03;;;;;;;2.50;1.10;;;;;;;;;;5034994;28;20026;-77
2021/04/15 11:16:30;;;;;;;5.80;1.33;;;;;;;;;;5042368;28;20029;-77
2021/04/15 11:19:05;;;;;;;2.97;1.20;;;;;;;;;;5051493;28;20032;-78
2021/04/15 11:21:34;;;;;;;3.97;1.50;;;;;;;;;;5048608;28;20389;-78
2021/04/15 11:24:18;;;;;;;4.10;1.40;;;;;;;;;;5055064;28;20472;-78
2021/04/15 11:26:45;;;;;;;4.47;1.10;;;;;;;;;;5040754;28;20028;-77
2021/04/15 11:29:43;;;;;;;3.43;1.07;;;;;;;;;;5043656;28;20081;-77
2021/04/15 11:32:27;;;;;;;3.93;1.30;;;;;;;;;;5032051;28;20037;-77
2021/04/15 11:35:11;;;;;;;4.87;1.20;;;;;;;;;;5052566;28;20078;-76
2021/04/15 11:37:38;;;;;;;2.83;1.17;;;;;;;;;;5046074;28;20104;-77
2021/04/15 11:40:22;;;;;;;3.87;1.30;;;;;;;;;;5049468;28;20083;-77
2021/04/15 11:42:48;;;;;;;4.73;1.10;;;;;;;;;;5048014;28;20021;-77
2021/04/15 11:45:25;;;;;;;4.67;1.20;;;;;;;;;;5054297;28;20035;-77
2021/04/15 11:47:51;;;;;;;7.00;1.67;;;;;;;;;;5039329;28;20014;-77
2021/04/15 11:50:20;;;;;;;4.77;1.50;;;;;;;;;;5033816;28;20419;-77
2021/04/15 11:52:49;;;;;;;3.13;1.10;;;;;;;;;;5036947;28;20029;-77
2021/04/15 11:55:25;;;;;;;3.10;1.30;;;;;;;;;;5041514;28;20469;-77
2021/04/15 11:57:55;;;;;;;4.83;1.30;;;;;;;;;;5055318;28;20021;-77
2021/04/15 12:00:24;;;;;;;2.43;1.00;;;;;;;;;;5053831;28;20032;-77
2021/04/15 12:02:56;;;;;;;3.20;1.13;;;;;;;;;;5035354;28;20076;-77
2021/04/15 12:05:29;;;;;;;4.18;1.60;;;;;;;;;;5041965;28;20071;-78
2021/04/15 12:07:57;;;;;;;3.60;1.17;;;;;;;;;;5040719;28;20032;-77
2021/04/15 12:10:25;;;;;;;2.93;1.30;;;;;;;;;;5053300;28;20029;-77
2021/04/15 12:12:53;;;;;;;3.40;1.50;;;;;;;;;;5040954;28;20031;-77
2021/04/15 12:15:21;;;;;;;5.83;1.37;;;;;;;;;;5051644;28;20354;-77
2021/04/15 12:17:49;;;;;;;2.70;1.10;;;;;;;;;;5036076;28;20021;-78
2021/04/15 12:20:23;;;;;;;2.83;1.10;;;;;;;;;;5041568;28;20058;-78
2021/04/15 12:23:07;;;;;;;3.20;1.30;;;;;;;;;;5052815;28;20021;-78
2021/04/15 12:25:38;;;;;;;2.33;1.10;;;;;;;;;;5049029;28;20018;-78
2021/04/15 12:28:18;;;;;;;3.20;1.13;;;;;;;;;;5050551;28;20052;-77
2021/04/15 12:30:43;;;;;;;2.60;1.10;;;;;;;;;;5045368;28;20112;-77
2021/04/15 12:33:23;;;;;;;2.83;1.23;;;;;;;;;;5048208;28;20072;-77
2021/04/15 12:35:48;;;;;;;3.60;1.17;;;;;;;;;;5043979;28;20350;-77
2021/04/15 12:38:17;;;;;;;4.90;1.40;;;;;;;;;;5036692;28;20021;-77
2021/04/15 12:40:44;;;;;;;2.53;1.23;;;;;;;;;;5043448;28;20504;-77
2021/04/15 12:43:12;;;;;;;6.27;1.20;;;;;;;;;;5050671;28;20013;-77
2021/04/15 12:45:37;;;;;;;2.57;1.10;;;;;;;;;;5053016;28;20052;-77
2021/04/15 12:48:04;;;;;;;4.83;1.50;;;;;;;;;;5036133;28;20488;-77
2021/04/15 12:50:29;;;;;;;3.27;1.50;;;;;;;;;;5044107;28;20516;-77
2021/04/15 12:52:56;;;;;;;3.37;1.30;;;;;;;;;;5036115;28;20029;-77
2021/04/15 12:55:22;;;;;;;4.50;1.27;;;;;;;;;;5040746;28;20369;-77
2021/04/15 12:57:48;;;;;;;3.17;1.60;;;;;;;;;;5053687;28;20041;-77
2021/04/15 13:00:16;;;;;;;2.83;1.23;;;;;;;;;;5044797;28;20485;-77
2021/04/15 13:02:41;;;;;;;3.00;1.40;;;;;;;;;;5035704;28;20029;-77
2021/04/15 13:05:32;;;;;;;3.50;1.67;;;;;;;;;;5038307;28;20025;-77
2021/04/15 13:08:18;;;;;;;3.70;1.50;;;;;;;;;;5040263;28;20079;-77
2021/04/15 13:10:44;;;;;;;3.47;1.50;;;;;;;;;;5049353;28;20112;-77
2021/04/15 13:13:19;;;;;;;4.70;1.50;;;;;;;;;;5032897;28;20525;-77
2021/04/15 13:15:44;;;;;;;8.77;1.60;;;;;;;;;;5039953;28;20083;-77
2021/04/15 13:18:29;;;;;;;4.83;1.67;;;;;;;;;;5051538;28;20114;-77
2021/04/15 13:21:12;;;;;;;6.63;1.30;;;;;;;;;;5041533;28;20075;-77
2021/04/15 13:23:39;;;;;;;3.17;1.20;;;;;;;;;;5052705;28;20061;-77
2021/04/15 13:26:04;;;;;;;5.47;1.40;;;;;;;;;;5042453;28;20021;-77
2021/04/15 13:28:56;;;;;;;2.57;1.03;;;;;;;;;;5033147;28;20047;-77
2021/04/15 13:31:51;;;;;;;3.77;1.20;;;;;;;;;;5034216;28;20120;-77
2021/04/15 13:34:27;;;;;;;4.37;1.40;;;;;;;;;;5030332;28;20489;-77
2021/04/15 13:36:53;;;;;;;3.80;1.30;;;;;;;;;;5039828;28;20025;-77
2021/04/15 13:39:35;;;;;;;5.17;1.30;;;;;;;;;;5080082;22;20558;-68
2021/04/15 13:42:04;;;;;;;3.00;1.10;;;;;;;;;;5072389;28;20036;-68
2021/04/15 13:44:49;;;;;;;3.03;1.07;;;;;;;;;;5071912;28;20099;-68
2021/04/15 13:47:33;;;;;;;5.73;1.20;;;;;;;;;;5071722;28;20020;-69
2021/04/15 13:49:58;;;;;;;2.67;1.00;;;;;;;;;;5072100;28;20028;-68
2021/04/15 13:52:36;;;;;;;5.57;1.30;;;;;;;;;;5072011;28;20465;-68
2021/04/15 13:55:20;;;;;;;2.90;1.10;;;;;;;;;;5072311;28;20036;-68
2021/04/15 13:57:45;;;;;;;2.53;0.93;;;;;;;;;;5071717;28;20085;-68
2021/04/15 14:00:19;;;;;;;2.70;1.30;;;;;;;;;;5071676;28;20044;-68
2021/04/15 14:02:46;;;;;;;4.53;1.03;;;;;;;;;;5071908;28;20032;-68
2021/04/15 14:05:40;;;;;;;2.27;0.90;;;;;;;;;;5072013;28;20381;-68
2021/04/15 14:08:15;;;;;;;2.47;1.07;;;;;;;;;;5068450;28;20044;-67
2021/04/15 14:10:41;;;;;;;3.13;1.30;;;;;;;;;;5072033;28;20384;-68
2021/04/15 14:13:14;;;;;;;1.93;1.00;;;;;;;;;;5053903;28;20025;-68
2021/04/15 14:15:45;;;;;;;3.73;1.30;;;;;;;;;;5071883;28;20037;-68
2021/04/15 14:18:30;;;;;;;2.85;1.20;;;;;;;;;;5033061;28;20385;-68
2021/04/15 14:21:14;;;;;;;3.07;1.20;;;;;;;;;;5053416;28;20031;-68
2021/04/15 14:23:43;;;;;;;2.27;1.17;;;;;;;;;;5035572;28;20020;-68
2021/04/15 14:26:23;;;;;;;3.93;1.30;;;;;;;;;;5050481;28;20087;-68
2021/04/15 14:28:49;;;;;;;4.03;1.80;;;;;;;;;;5031234;28;20469;-68
2021/04/15 14:31:14;;;;;;;1.93;1.03;;;;;;;;;;5053578;28;20048;-68
2021/04/15 14:33:40;;;;;;;2.97;1.20;;;;;;;;;;5031873;28;20100;-68
2021/04/15 14:36:05;;;;;;;4.90;1.23;;;;;;;;;;5046687;28;20029;-68
2021/04/15 14:38:36;;;;;;;2.50;1.17;;;;;;;;;;5030437;28;20046;-68
2021/04/15 14:41:04;;;;;;;2.70;0.93;;;;;;;;;;5044168;28;20092;-68
2021/04/15 14:43:33;;;;;;;2.87;1.37;;;;;;;;;;5031517;28;20024;-68
2021/04/15 14:46:34;;;;;;;4.27;1.53;;;;;;;;;;5042927;28;20490;-68
2021/04/15 14:49:32;;;;;;;4.67;1.70;;;;;;;;;;4999822;28;20478;-68
2021/04/15 14:52:12;;;;;;;3.37;1.20;;;;;;;;;;5001025;28;20033;-68
2021/04/15 14:54:37;;;;;;;3.23;1.00;;;;;;;;;;5034844;28;20120;-68
2021/04/15 14:57:03;;;;;;;2.53;1.17;;;;;;;;;;5044724;28;20042;-68
2021/04/15 14:59:33;;;;;;;2.83;1.10;;;;;;;;;;5031995;28;20022;-68
2021/04/15 15:02:05;;;;;;;2.17;0.90;;;;;;;;;;5033488;28;20017;-68
2021/04/15 15:04:31;;;;;;;6.47;1.40;;;;;;;;;;5032711;28;20339;-68
2021/04/15 15:06:57;;;;;;;3.93;1.00;;;;;;;;;;5031896;28;20017;-68
2021/04/15 15:09:24;;;;;;;2.47;1.10;;;;;;;;;;5040588;28;20017;-68
2021/04/15 15:11:50;;;;;;;3.10;1.23;;;;;;;;;;5057289;28;20039;-68
2021/04/15 15:14:20;;;;;;;2.33;1.10;;;;;;;;;;5037103;28;20029;-67
2021/04/15 15:16:46;;;;;;;6.93;1.20;;;;;;;;;;5060869;28;20025;-68